sensor_id;sensor_type;location;lat;lon;timestamp;pressure;altitude;pressure_sealevel;temperature;humidity
51297;BME280;37380;45.186;9.792;2023-02-02T00:00:55;101525.41;;;4.32;100.00
51297;BME280;37380;45.186;9.792;2023-02-02T00:03:22;101496.19;;;4.10;100.00
51297;BME280;37380;45.186;9.792;2023-02-02T00:05:51;101535.09;;;4.35;100.00
51297;BME280;37380;45.186;9.792;2023-02-02T00:08:20;101522.53;;;4.16;100.00
51297;BME280;37380;45.186;9.792;2023-02-02T00:10:47;101512.72;;;4.12;100.00
51297;BME280;37380;45.186;9.792;2023-02-02T00:13:14;101507.44;;;4.22;100.00
51297;BME280;37380;45.186;9.792;2023-02-02T00:15:47;101495.84;;;4.17;100.00
51297;BME280;37380;45.186;9.792;2023-02-02T00:18:48;101539.03;;;4.18;100.00
51297;BME280;37380;45.186;9.792;2023-02-02T00:21:49;101524.31;;;4.17;100.00
51297;BME280;37380;45.186;9.792;2023-02-02T00:24:26;101506.78;;;4.13;100.00
51297;BME280;37380;45.186;9.792;2023-02-02T00:26:58;101530.38;;;4.29;100.00
51297;BME280;37380;45.186;9.792;2023-02-02T00:29:28;101537.91;;;4.26;100.00
51297;BME280;37380;45.186;9.792;2023-02-02T00:31:56;101520.38;;;4.11;100.00
51297;BME280;37380;45.186;9.792;2023-02-02T00:34:24;101538.25;;;4.19;100.00
51297;BME280;37380;45.186;9.792;2023-02-02T00:36:51;101496.97;;;3.85;100.00
51297;BME280;37380;45.186;9.792;2023-02-02T00:39:21;101531.84;;;4.14;100.00
51297;BME280;37380;45.186;9.792;2023-02-02T00:41:51;101452.44;;;3.66;100.00
51297;BME280;37380;45.186;9.792;2023-02-02T00:44:18;101503.63;;;3.94;100.00
51297;BME280;37380;45.186;9.792;2023-02-02T00:47:03;101527.56;;;4.03;100.00
51297;BME280;37380;45.186;9.792;2023-02-02T00:49:30;101558.38;;;4.23;100.00
51297;BME280;37380;45.186;9.792;2023-02-02T00:51:58;101559.50;;;4.27;100.00
51297;BME280;37380;45.186;9.792;2023-02-02T00:54:26;101449.63;;;3.63;100.00
51297;BME280;37380;45.186;9.792;2023-02-02T00:57:00;101532.06;;;4.05;100.00
51297;BME280;37380;45.186;9.792;2023-02-02T00:59:55;101545.09;;;3.95;100.00
51297;BME280;37380;45.186;9.792;2023-02-02T01:02:28;101554.31;;;4.03;100.00
51297;BME280;37380;45.186;9.792;2023-02-02T01:05:23;101574.78;;;4.12;100.00
51297;BME280;37380;45.186;9.792;2023-02-02T01:07:50;101453.78;;;3.37;100.00
51297;BME280;37380;45.186;9.792;2023-02-02T01:10:19;101515.03;;;3.62;100.00
51297;BME280;37380;45.186;9.792;2023-02-02T01:12:46;101566.53;;;3.71;100.00
51297;BME280;37380;45.186;9.792;2023-02-02T01:15:13;101514.88;;;3.49;100.00
51297;BME280;37380;45.186;9.792;2023-02-02T01:17:46;101558.16;;;3.63;100.00
51297;BME280;37380;45.186;9.792;2023-02-02T01:20:41;101544.56;;;3.54;100.00
51297;BME280;37380;45.186;9.792;2023-02-02T01:23:08;101519.06;;;3.47;100.00
51297;BME280;37380;45.186;9.792;2023-02-02T01:25:35;101543.50;;;3.74;100.00
51297;BME280;37380;45.186;9.792;2023-02-02T01:28:04;101580.50;;;3.96;100.00
51297;BME280;37380;45.186;9.792;2023-02-02T01:30:31;101560.34;;;3.80;100.00
51297;BME280;37380;45.186;9.792;2023-02-02T01:32:58;101576.34;;;4.10;100.00
51297;BME280;37380;45.186;9.792;2023-02-02T01:35:25;101557.22;;;3.84;100.00
51297;BME280;37380;45.186;9.792;2023-02-02T01:37:53;101570.94;;;4.07;100.00
51297;BME280;37380;45.186;9.792;2023-02-02T01:40:20;101465.78;;;3.49;100.00
51297;BME280;37380;45.186;9.792;2023-02-02T01:42:47;101579.72;;;4.09;100.00
51297;BME280;37380;45.186;9.792;2023-02-02T01:45:27;101526.22;;;3.84;100.00
51297;BME280;37380;45.186;9.792;2023-02-02T01:48:01;101570.94;;;4.07;100.00
51297;BME280;37380;45.186;9.792;2023-02-02T01:51:06;101563.19;;;4.19;100.00
51297;BME280;37380;45.186;9.792;2023-02-02T01:54:10;101461.41;;;3.48;100.00
51297;BME280;37380;45.186;9.792;2023-02-02T01:56:52;101557.47;;;4.11;100.00
51297;BME280;37380;45.186;9.792;2023-02-02T01:59:48;101549.81;;;4.01;100.00
51297;BME280;37380;45.186;9.792;2023-02-02T02:02:18;101494.28;;;3.84;100.00
51297;BME280;37380;45.186;9.792;2023-02-02T02:04:47;101464.47;;;3.77;100.00
51297;BME280;37380;45.186;9.792;2023-02-02T02:07:17;101495.41;;;3.99;100.00
51297;BME280;37380;45.186;9.792;2023-02-02T02:09:44;101491.13;;;4.00;100.00
51297;BME280;37380;45.186;9.792;2023-02-02T02:12:12;101539.81;;;4.41;100.00
51297;BME280;37380;45.186;9.792;2023-02-02T02:14:47;101517.00;;;4.12;100.00
51297;BME280;37380;45.186;9.792;2023-02-02T02:17:49;101536.31;;;4.52;100.00
51297;BME280;37380;45.186;9.792;2023-02-02T02:20:57;101537.44;;;4.44;100.00
51297;BME280;37380;45.186;9.792;2023-02-02T02:35:40;101520.38;;;4.34;100.00
51297;BME280;37380;45.186;9.792;2023-02-02T02:38:47;101538.34;;;4.32;100.00
51297;BME280;37380;45.186;9.792;2023-02-02T02:41:26;101493.84;;;4.13;100.00
51297;BME280;37380;45.186;9.792;2023-02-02T02:44:11;101536.13;;;4.25;100.00
51297;BME280;37380;45.186;9.792;2023-02-02T02:46:41;101555.91;;;4.48;100.00
51297;BME280;37380;45.186;9.792;2023-02-02T02:49:10;101548.16;;;4.37;100.00
51297;BME280;37380;45.186;9.792;2023-02-02T02:51:48;101561.19;;;4.38;100.00
51297;BME280;37380;45.186;9.792;2023-02-02T02:54:43;101537.00;;;4.14;100.00
51297;BME280;37380;45.186;9.792;2023-02-02T03:09:24;101572.41;;;3.92;100.00
51297;BME280;37380;45.186;9.792;2023-02-02T03:12:21;101535.19;;;3.90;100.00
51297;BME280;37380;45.186;9.792;2023-02-02T03:14:48;101565.00;;;4.08;100.00
51297;BME280;37380;45.186;9.792;2023-02-02T03:17:21;101512.63;;;3.87;100.00
51297;BME280;37380;45.186;9.792;2023-02-02T03:20:22;101551.16;;;3.84;100.00
51297;BME280;37380;45.186;9.792;2023-02-02T03:23:17;101578.59;;;3.94;100.00
51297;BME280;37380;45.186;9.792;2023-02-02T03:25:44;101514.88;;;3.49;100.00
51297;BME280;37380;45.186;9.792;2023-02-02T03:28:13;101578.22;;;3.77;100.00
51297;BME280;37380;45.186;9.792;2023-02-02T03:30:42;101595.34;;;3.87;100.00
51297;BME280;37380;45.186;9.792;2023-02-02T03:33:11;101556.16;;;3.59;100.00
51297;BME280;37380;45.186;9.792;2023-02-02T03:35:38;101579.22;;;3.68;100.00
51297;BME280;37380;45.186;9.792;2023-02-02T03:38:05;101571.75;;;3.60;100.00
51297;BME280;37380;45.186;9.792;2023-02-02T03:40:32;101569.06;;;3.59;100.00
51297;BME280;37380;45.186;9.792;2023-02-02T03:42:59;101614.25;;;3.64;100.00
51297;BME280;37380;45.186;9.792;2023-02-02T03:45:27;101591.53;;;3.60;100.00
51297;BME280;37380;45.186;9.792;2023-02-02T03:47:54;101617.16;;;3.91;100.00
51297;BME280;37380;45.186;9.792;2023-02-02T03:50:21;101606.13;;;3.81;100.00
51297;BME280;37380;45.186;9.792;2023-02-02T03:52:48;101588.66;;;3.67;100.00
51297;BME280;37380;45.186;9.792;2023-02-02T03:55:21;101577.69;;;3.48;100.00
51297;BME280;37380;45.186;9.792;2023-02-02T03:58:22;101572.16;;;3.43;100.00
51297;BME280;37380;45.186;9.792;2023-02-02T04:01:06;101579.75;;;3.30;100.00
51297;BME280;37380;45.186;9.792;2023-02-02T04:04:06;101583.38;;;3.32;100.00
51297;BME280;37380;45.186;9.792;2023-02-02T04:07:07;101550.91;;;3.35;100.00
51297;BME280;37380;45.186;9.792;2023-02-02T04:09:41;101611.97;;;3.91;100.00
51297;BME280;37380;45.186;9.792;2023-02-02T04:12:08;101559.66;;;3.71;100.00
51297;BME280;37380;45.186;9.792;2023-02-02T04:14:35;101614.59;;;4.02;100.00
51297;BME280;37380;45.186;9.792;2023-02-02T04:17:08;101610.53;;;4.06;100.00
51297;BME280;37380;45.186;9.792;2023-02-02T04:20:05;101616.59;;;3.95;100.00
51297;BME280;37380;45.186;9.792;2023-02-02T04:22:33;101613.41;;;3.75;100.00
51297;BME280;37380;45.186;9.792;2023-02-02T04:25:00;101559.97;;;3.30;100.00
51297;BME280;37380;45.186;9.792;2023-02-02T04:27:28;101614.19;;;3.40;100.00
51297;BME280;37380;45.186;9.792;2023-02-02T04:30:05;101580.53;;;3.07;100.00
51297;BME280;37380;45.186;9.792;2023-02-02T04:32:53;101600.28;;;3.06;100.00
51297;BME280;37380;45.186;9.792;2023-02-02T04:35:20;101609.25;;;3.00;100.00
51297;BME280;37380;45.186;9.792;2023-02-02T04:37:48;101567.59;;;2.63;100.00
51297;BME280;37380;45.186;9.792;2023-02-02T04:40:15;101572.78;;;2.53;100.00
51297;BME280;37380;45.186;9.792;2023-02-02T04:42:42;101552.78;;;2.50;100.00
51297;BME280;37380;45.186;9.792;2023-02-02T04:45:11;101604.34;;;2.60;100.00
51297;BME280;37380;45.186;9.792;2023-02-02T04:47:38;101559.69;;;2.29;100.00
51297;BME280;37380;45.186;9.792;2023-02-02T04:50:06;101577.41;;;2.14;100.00
51297;BME280;37380;45.186;9.792;2023-02-02T04:52:33;101599.66;;;2.24;100.00
51297;BME280;37380;45.186;9.792;2023-02-02T04:55:01;101563.13;;;1.97;100.00
51297;BME280;37380;45.186;9.792;2023-02-02T04:57:34;101604.59;;;2.00;100.00
51297;BME280;37380;45.186;9.792;2023-02-02T05:00:35;101599.22;;;1.87;100.00
51297;BME280;37380;45.186;9.792;2023-02-02T05:03:30;101626.16;;;2.01;100.00
51297;BME280;37380;45.186;9.792;2023-02-02T05:06:01;101546.66;;;1.65;100.00
51297;BME280;37380;45.186;9.792;2023-02-02T05:08:29;101633.03;;;2.43;100.00
51297;BME280;37380;45.186;9.792;2023-02-02T05:10:56;101600.47;;;2.23;100.00
51297;BME280;37380;45.186;9.792;2023-02-02T05:13:23;101584.72;;;2.30;100.00
51297;BME280;37380;45.186;9.792;2023-02-02T05:15:56;101628.22;;;2.58;100.00
51297;BME280;37380;45.186;9.792;2023-02-02T05:18:58;101620.28;;;2.34;100.00
51297;BME280;37380;45.186;9.792;2023-02-02T05:21:52;101618.25;;;2.20;100.00
51297;BME280;37380;45.186;9.792;2023-02-02T05:24:22;101598.56;;;2.00;100.00
51297;BME280;37380;45.186;9.792;2023-02-02T05:26:49;101630.63;;;2.14;100.00
51297;BME280;37380;45.186;9.792;2023-02-02T05:29:23;101617.63;;;1.81;100.00
51297;BME280;37380;45.186;9.792;2023-02-02T05:32:24;101635.03;;;1.94;100.00
51297;BME280;37380;45.186;9.792;2023-02-02T05:35:20;101644.31;;;1.82;100.00
51297;BME280;37380;45.186;9.792;2023-02-02T05:37:47;101653.06;;;1.74;100.00
51297;BME280;37380;45.186;9.792;2023-02-02T05:40:14;101659.50;;;1.99;100.00
51297;BME280;37380;45.186;9.792;2023-02-02T05:42:41;101620.97;;;1.70;100.00
51297;BME280;37380;45.186;9.792;2023-02-02T05:45:08;101678.97;;;1.96;100.00
51297;BME280;37380;45.186;9.792;2023-02-02T05:47:35;101629.47;;;1.59;100.00
51297;BME280;37380;45.186;9.792;2023-02-02T05:50:02;101641.31;;;1.77;100.00
51297;BME280;37380;45.186;9.792;2023-02-02T05:52:30;101642.22;;;2.29;100.00
51297;BME280;37380;45.186;9.792;2023-02-02T05:55:00;101638.19;;;2.43;100.00
51297;BME280;37380;45.186;9.792;2023-02-02T05:57:33;101632.66;;;2.48;100.00
51297;BME280;37380;45.186;9.792;2023-02-02T06:00:36;101702.88;;;2.77;100.00
51297;BME280;37380;45.186;9.792;2023-02-02T06:03:37;101707.41;;;2.59;100.00
51297;BME280;37380;45.186;9.792;2023-02-02T06:06:38;101647.75;;;2.34;100.00
51297;BME280;37380;45.186;9.792;2023-02-02T06:09:34;101668.78;;;2.28;100.00
51297;BME280;37380;45.186;9.792;2023-02-02T06:12:01;101678.19;;;2.17;100.00
51297;BME280;37380;45.186;9.792;2023-02-02T06:14:28;101694.56;;;2.28;100.00
51297;BME280;37380;45.186;9.792;2023-02-02T06:17:02;101697.16;;;2.08;100.00
51297;BME280;37380;45.186;9.792;2023-02-02T06:19:56;101698.97;;;1.98;100.00
51297;BME280;37380;45.186;9.792;2023-02-02T06:22:23;101671.56;;;1.49;100.00
51297;BME280;37380;45.186;9.792;2023-02-02T06:24:50;101678.28;;;1.57;100.00
51297;BME280;37380;45.186;9.792;2023-02-02T06:27:19;101655.56;;;1.33;100.00
51297;BME280;37380;45.186;9.792;2023-02-02T06:29:46;101673.38;;;1.40;100.00
51297;BME280;37380;45.186;9.792;2023-02-02T06:32:13;101685.66;;;1.63;100.00
51297;BME280;37380;45.186;9.792;2023-02-02T06:34:40;101634.75;;;1.50;100.00
51297;BME280;37380;45.186;9.792;2023-02-02T06:37:07;101649.19;;;1.58;100.00
51297;BME280;37380;45.186;9.792;2023-02-02T06:39:34;101612.84;;;1.35;100.00
51297;BME280;37380;45.186;9.792;2023-02-02T06:42:01;101651.63;;;1.77;100.00
51297;BME280;37380;45.186;9.792;2023-02-02T06:44:46;101623.44;;;1.79;100.00
51297;BME280;37380;45.186;9.792;2023-02-02T06:47:13;101627.81;;;1.80;100.00
51297;BME280;37380;45.186;9.792;2023-02-02T06:49:40;101650.50;;;1.84;100.00
51297;BME280;37380;45.186;9.792;2023-02-02T06:52:07;101656.94;;;1.89;100.00
51297;BME280;37380;45.186;9.792;2023-02-02T06:54:34;101667.41;;;2.01;100.00
51297;BME280;37380;45.186;9.792;2023-02-02T06:57:08;101653.22;;;1.96;100.00
51297;BME280;37380;45.186;9.792;2023-02-02T07:00:09;101673.44;;;2.22;100.00
51297;BME280;37380;45.186;9.792;2023-02-02T07:03:11;101644.06;;;2.10;100.00
51297;BME280;37380;45.186;9.792;2023-02-02T07:06:12;101678.81;;;2.45;100.00
51297;BME280;37380;45.186;9.792;2023-02-02T07:08:40;101667.75;;;2.36;100.00
51297;BME280;37380;45.186;9.792;2023-02-02T07:11:08;101668.88;;;2.50;100.00
51297;BME280;37380;45.186;9.792;2023-02-02T07:14:02;101689.59;;;2.72;100.00
51297;BME280;37380;45.186;9.792;2023-02-02T07:17:04;101708.41;;;2.91;100.00
51297;BME280;37380;45.186;9.792;2023-02-02T07:19:58;101692.53;;;2.87;100.00
51297;BME280;37380;45.186;9.792;2023-02-02T07:22:25;101662.44;;;2.87;100.00
51297;BME280;37380;45.186;9.792;2023-02-02T07:24:52;101678.72;;;2.86;100.00
51297;BME280;37380;45.186;9.792;2023-02-02T07:27:22;101722.06;;;3.23;100.00
51297;BME280;37380;45.186;9.792;2023-02-02T07:29:56;101676.97;;;3.07;100.00
51297;BME280;37380;45.186;9.792;2023-02-02T07:32:57;101700.53;;;3.22;100.00
51297;BME280;37380;45.186;9.792;2023-02-02T07:35:51;101713.47;;;3.44;100.00
51297;BME280;37380;45.186;9.792;2023-02-02T07:38:18;101710.00;;;3.44;100.00
51297;BME280;37380;45.186;9.792;2023-02-02T07:40:45;101659.38;;;3.13;100.00
51297;BME280;37380;45.186;9.792;2023-02-02T07:43:12;101686.50;;;3.62;100.00
51297;BME280;37380;45.186;9.792;2023-02-02T07:45:39;101686.34;;;3.49;100.00
51297;BME280;37380;45.186;9.792;2023-02-02T07:48:07;101687.22;;;3.50;100.00
51297;BME280;37380;45.186;9.792;2023-02-02T07:50:34;101684.28;;;3.67;100.00
51297;BME280;37380;45.186;9.792;2023-02-02T07:53:01;101669.06;;;3.60;100.00
51297;BME280;37380;45.186;9.792;2023-02-02T07:55:35;101713.19;;;4.07;100.00
51297;BME280;37380;45.186;9.792;2023-02-02T07:58:29;101732.03;;;4.16;100.00
51297;BME280;37380;45.186;9.792;2023-02-02T08:01:00;101717.44;;;4.28;100.00
51297;BME280;37380;45.186;9.792;2023-02-02T08:03:35;101733.41;;;4.35;100.00
51297;BME280;37380;45.186;9.792;2023-02-02T08:06:38;101697.88;;;4.44;100.00
51297;BME280;37380;45.186;9.792;2023-02-02T08:09:32;101706.47;;;4.66;100.00
51297;BME280;37380;45.186;9.792;2023-02-02T08:11:59;101739.25;;;5.01;100.00
51297;BME280;37380;45.186;9.792;2023-02-02T08:14:28;101723.34;;;5.20;100.00
51297;BME280;37380;45.186;9.792;2023-02-02T08:17:02;101710.06;;;5.27;100.00
51297;BME280;37380;45.186;9.792;2023-02-02T08:20:03;101700.53;;;5.51;100.00
51297;BME280;37380;45.186;9.792;2023-02-02T08:23:06;101742.03;;;5.88;100.00
51297;BME280;37380;45.186;9.792;2023-02-02T08:26:15;101734.94;;;6.10;100.00
51297;BME280;37380;45.186;9.792;2023-02-02T08:28:46;101723.53;;;5.95;100.00
51297;BME280;37380;45.186;9.792;2023-02-02T08:31:17;101729.06;;;5.88;100.00
51297;BME280;37380;45.186;9.792;2023-02-02T08:33:44;101729.50;;;6.19;100.00
51297;BME280;37380;45.186;9.792;2023-02-02T08:36:17;101675.00;;;5.69;100.00
51297;BME280;37380;45.186;9.792;2023-02-02T08:38:44;101737.72;;;6.00;100.00
51297;BME280;37380;45.186;9.792;2023-02-02T08:41:14;101750.78;;;6.27;100.00
51297;BME280;37380;45.186;9.792;2023-02-02T08:43:41;101756.41;;;6.33;100.00
51297;BME280;37380;45.186;9.792;2023-02-02T08:46:10;101606.94;;;5.35;100.00
51297;BME280;37380;45.186;9.792;2023-02-02T08:48:38;101722.03;;;6.24;100.00
51297;BME280;37380;45.186;9.792;2023-02-02T08:51:07;101753.75;;;6.45;100.00
51297;BME280;37380;45.186;9.792;2023-02-02T08:53:35;101724.09;;;6.41;100.00
51297;BME280;37380;45.186;9.792;2023-02-02T08:56:16;101740.72;;;6.83;100.00
51297;BME280;37380;45.186;9.792;2023-02-02T08:59:17;101721.84;;;6.72;100.00
51297;BME280;37380;45.186;9.792;2023-02-02T09:02:18;101694.34;;;6.49;100.00
51297;BME280;37380;45.186;9.792;2023-02-02T09:05:12;101739.34;;;6.75;100.00
51297;BME280;37380;45.186;9.792;2023-02-02T09:07:39;101735.13;;;7.03;100.00
51297;BME280;37380;45.186;9.792;2023-02-02T09:10:06;101709.34;;;6.67;100.00
51297;BME280;37380;45.186;9.792;2023-02-02T09:12:40;101694.88;;;6.70;100.00
51297;BME280;37380;45.186;9.792;2023-02-02T09:15:41;101751.28;;;7.66;100.00
51297;BME280;37380;45.186;9.792;2023-02-02T09:18:44;101716.09;;;7.58;100.00
51297;BME280;37380;45.186;9.792;2023-02-02T09:21:39;101738.47;;;7.56;100.00
51297;BME280;37380;45.186;9.792;2023-02-02T09:24:09;101746.72;;;8.18;100.00
51297;BME280;37380;45.186;9.792;2023-02-02T09:26:36;101731.00;;;8.31;100.00
51297;BME280;37380;45.186;9.792;2023-02-02T09:29:07;101737.97;;;8.60;100.00
51297;BME280;37380;45.186;9.792;2023-02-02T09:31:37;101747.88;;;8.66;100.00
51297;BME280;37380;45.186;9.792;2023-02-02T09:34:07;101730.34;;;8.64;100.00
51297;BME280;37380;45.186;9.792;2023-02-02T09:36:35;101730.00;;;9.02;100.00
51297;BME280;37380;45.186;9.792;2023-02-02T09:39:11;101735.03;;;8.99;100.00
51297;BME280;37380;45.186;9.792;2023-02-02T09:42:24;101740.19;;;9.28;100.00
51297;BME280;37380;45.186;9.792;2023-02-02T09:44:58;101752.09;;;9.55;100.00
51297;BME280;37380;45.186;9.792;2023-02-02T09:47:49;101751.63;;;9.78;100.00
51297;BME280;37380;45.186;9.792;2023-02-02T09:50:40;101752.03;;;9.86;100.00
51297;BME280;37380;45.186;9.792;2023-02-02T09:55:45;101753.03;;;9.57;100.00
51297;BME280;37380;45.186;9.792;2023-02-02T09:58:47;101756.97;;;9.65;100.00
51297;BME280;37380;45.186;9.792;2023-02-02T10:01:24;101753.19;;;9.91;100.00
51297;BME280;37380;45.186;9.792;2023-02-02T10:04:07;101713.53;;;10.14;100.00
51297;BME280;37380;45.186;9.792;2023-02-02T10:07:16;101747.50;;;10.31;100.00
51297;BME280;37380;45.186;9.792;2023-02-02T10:10:34;101766.28;;;10.40;100.00
51297;BME280;37380;45.186;9.792;2023-02-02T10:13:34;101785.00;;;10.00;100.00
51297;BME280;37380;45.186;9.792;2023-02-02T10:16:15;101707.16;;;9.60;100.00
51297;BME280;37380;45.186;9.792;2023-02-02T10:19:17;101749.97;;;10.28;100.00
51297;BME280;37380;45.186;9.792;2023-02-02T10:22:20;101766.16;;;10.71;100.00
51297;BME280;37380;45.186;9.792;2023-02-02T10:25:16;101768.31;;;11.32;100.00
51297;BME280;37380;45.186;9.792;2023-02-02T10:28:07;101704.03;;;11.01;100.00
51297;BME280;37380;45.186;9.792;2023-02-02T10:30:44;101742.72;;;11.44;100.00
51297;BME280;37380;45.186;9.792;2023-02-02T10:33:14;101770.78;;;11.66;100.00
51297;BME280;37380;45.186;9.792;2023-02-02T10:36:35;101750.28;;;11.38;100.00
51297;BME280;37380;45.186;9.792;2023-02-02T10:38:54;101762.03;;;11.46;100.00
51297;BME280;37380;45.186;9.792;2023-02-02T10:44:51;101734.19;;;11.48;100.00
51297;BME280;37380;45.186;9.792;2023-02-02T10:47:47;101742.25;;;10.99;100.00
51297;BME280;37380;45.186;9.792;2023-02-02T10:50:20;101691.16;;;10.70;100.00
51297;BME280;37380;45.186;9.792;2023-02-02T10:52:53;101724.00;;;11.17;100.00
51297;BME280;37380;45.186;9.792;2023-02-02T10:55:37;101734.50;;;11.19;100.00
51297;BME280;37380;45.186;9.792;2023-02-02T10:58:48;101748.09;;;11.47;100.00
51297;BME280;37380;45.186;9.792;2023-02-02T11:01:23;101721.28;;;11.16;100.00
51297;BME280;37380;45.186;9.792;2023-02-02T11:04:19;101741.44;;;11.36;100.00
51297;BME280;37380;45.186;9.792;2023-02-02T11:07:06;101725.69;;;11.17;100.00
51297;BME280;37380;45.186;9.792;2023-02-02T11:09:39;101694.81;;;11.65;100.00
51297;BME280;37380;45.186;9.792;2023-02-02T11:12:33;101700.94;;;11.28;100.00
51297;BME280;37380;45.186;9.792;2023-02-02T11:15:22;101708.28;;;11.72;100.00
51297;BME280;37380;45.186;9.792;2023-02-02T11:18:27;101715.00;;;12.05;100.00
51297;BME280;37380;45.186;9.792;2023-02-02T11:26:52;101686.84;;;12.20;100.00
51297;BME280;37380;45.186;9.792;2023-02-02T11:29:41;101700.13;;;12.44;100.00
51297;BME280;37380;45.186;9.792;2023-02-02T11:32:31;101700.56;;;12.14;100.00
51297;BME280;37380;45.186;9.792;2023-02-02T11:35:20;101698.34;;;12.43;100.00
51297;BME280;37380;45.186;9.792;2023-02-02T11:38:14;101683.38;;;12.82;99.71
51297;BME280;37380;45.186;9.792;2023-02-02T11:40:44;101664.13;;;12.82;100.00
51297;BME280;37380;45.186;9.792;2023-02-02T11:46:30;101647.41;;;13.01;97.14
51297;BME280;37380;45.186;9.792;2023-02-02T11:49:24;101671.81;;;13.21;94.62
51297;BME280;37380;45.186;9.792;2023-02-02T11:52:00;101643.38;;;12.88;89.97
51297;BME280;37380;45.186;9.792;2023-02-02T11:54:30;101593.16;;;12.56;92.52
51297;BME280;37380;45.186;9.792;2023-02-02T11:57:09;101634.09;;;12.96;90.10
51297;BME280;37380;45.186;9.792;2023-02-02T12:02:36;101605.50;;;12.59;86.47
51297;BME280;37380;45.186;9.792;2023-02-02T12:07:47;101599.34;;;13.02;87.02
51297;BME280;37380;45.186;9.792;2023-02-02T12:13:49;101636.50;;;13.12;86.51
51297;BME280;37380;45.186;9.792;2023-02-02T12:24:28;101623.84;;;13.25;84.29
51297;BME280;37380;45.186;9.792;2023-02-02T12:27:18;101617.41;;;13.17;80.95
51297;BME280;37380;45.186;9.792;2023-02-02T12:47:37;101604.50;;;13.23;84.05
51297;BME280;37380;45.186;9.792;2023-02-02T12:56:57;101537.69;;;12.90;74.63
51297;BME280;37380;45.186;9.792;2023-02-02T13:12:52;101371.81;;;11.82;73.66
51297;BME280;37380;45.186;9.792;2023-02-02T13:15:33;101559.69;;;12.94;71.56
51297;BME280;37380;45.186;9.792;2023-02-02T13:18:35;101382.28;;;12.03;72.52
51297;BME280;37380;45.186;9.792;2023-02-02T13:21:36;101489.25;;;12.58;74.37
51297;BME280;37380;45.186;9.792;2023-02-02T13:24:33;101587.09;;;13.25;74.88
51297;BME280;37380;45.186;9.792;2023-02-02T13:27:04;101567.19;;;13.07;74.89
51297;BME280;37380;45.186;9.792;2023-02-02T13:32:39;101522.72;;;12.88;76.33
51297;BME280;37380;45.186;9.792;2023-02-02T13:35:41;101592.16;;;13.20;72.95
51297;BME280;37380;45.186;9.792;2023-02-02T13:40:50;101593.75;;;12.93;72.68
51297;BME280;37380;45.186;9.792;2023-02-02T13:44:19;101597.78;;;13.07;72.07
51297;BME280;37380;45.186;9.792;2023-02-02T13:47:33;101595.75;;;13.00;70.89
51297;BME280;37380;45.186;9.792;2023-02-02T13:50:53;101543.78;;;12.67;71.11
51297;BME280;37380;45.186;9.792;2023-02-02T13:56:53;101587.66;;;13.16;70.56
51297;BME280;37380;45.186;9.792;2023-02-02T14:02:45;101550.88;;;12.92;70.76
51297;BME280;37380;45.186;9.792;2023-02-02T14:08:00;101569.72;;;13.04;76.84
51297;BME280;37380;45.186;9.792;2023-02-02T14:11:04;101556.53;;;12.80;77.46
51297;BME280;37380;45.186;9.792;2023-02-02T14:17:48;101565.84;;;12.95;76.00
51297;BME280;37380;45.186;9.792;2023-02-02T14:39:10;101540.06;;;12.62;74.94
51297;BME280;37380;45.186;9.792;2023-02-02T15:06:01;101493.84;;;11.78;82.59
51297;BME280;37380;45.186;9.792;2023-02-02T15:20:25;101574.88;;;11.95;88.41
51297;BME280;37380;45.186;9.792;2023-02-02T15:23:37;101577.81;;;11.83;92.41
51297;BME280;37380;45.186;9.792;2023-02-02T15:26:29;101542.06;;;11.24;95.69
51297;BME280;37380;45.186;9.792;2023-02-02T15:29:13;101593.00;;;11.51;95.78
51297;BME280;37380;45.186;9.792;2023-02-02T15:31:45;101603.94;;;11.43;96.50
51297;BME280;37380;45.186;9.792;2023-02-02T15:34:23;101604.72;;;11.60;94.46
51297;BME280;37380;45.186;9.792;2023-02-02T15:37:25;101579.16;;;11.15;96.92
51297;BME280;37380;45.186;9.792;2023-02-02T15:39:59;101597.16;;;11.09;97.94
51297;BME280;37380;45.186;9.792;2023-02-02T15:42:42;101615.81;;;11.35;96.44
51297;BME280;37380;45.186;9.792;2023-02-02T15:45:53;101605.50;;;11.20;99.04
51297;BME280;37380;45.186;9.792;2023-02-02T15:52:09;101606.88;;;10.94;99.81
51297;BME280;37380;45.186;9.792;2023-02-02T15:54:37;101567.94;;;10.62;98.32
51297;BME280;37380;45.186;9.792;2023-02-02T15:57:23;101559.53;;;10.50;96.47
51297;BME280;37380;45.186;9.792;2023-02-02T16:03:36;101587.28;;;10.48;94.22
51297;BME280;37380;45.186;9.792;2023-02-02T16:06:30;101630.28;;;10.55;93.30
51297;BME280;37380;45.186;9.792;2023-02-02T16:09:04;101613.84;;;10.39;93.63
51297;BME280;37380;45.186;9.792;2023-02-02T16:11:32;101611.81;;;10.34;93.54
51297;BME280;37380;45.186;9.792;2023-02-02T16:14:13;101612.50;;;10.30;90.68
51297;BME280;37380;45.186;9.792;2023-02-02T16:16:44;101635.34;;;10.52;88.82
51297;BME280;37380;45.186;9.792;2023-02-02T16:19:18;101628.25;;;10.31;90.43
51297;BME280;37380;45.186;9.792;2023-02-02T16:24:21;101565.75;;;9.84;89.59
51297;BME280;37380;45.186;9.792;2023-02-02T16:26:51;101630.78;;;10.30;87.63
51297;BME280;37380;45.186;9.792;2023-02-02T16:29:19;101639.25;;;10.26;89.58
51297;BME280;37380;45.186;9.792;2023-02-02T16:31:47;101645.56;;;9.96;90.54
51297;BME280;37380;45.186;9.792;2023-02-02T16:37:34;101503.50;;;9.24;91.19
51297;BME280;37380;45.186;9.792;2023-02-02T16:40:17;101672.47;;;10.12;93.14
51297;BME280;37380;45.186;9.792;2023-02-02T16:43:26;101666.88;;;9.88;93.71
51297;BME280;37380;45.186;9.792;2023-02-02T16:46:49;101658.94;;;9.53;96.50
51297;BME280;37380;45.186;9.792;2023-02-02T16:49:43;101658.16;;;9.55;93.80
51297;BME280;37380;45.186;9.792;2023-02-02T16:52:18;101667.03;;;9.58;94.19
51297;BME280;37380;45.186;9.792;2023-02-02T16:54:55;101674.69;;;9.55;93.07